Aviation Digital Data Service (ADDS)

Output produced by METARs form (2337 UTC 20 January 2019)
found at http://www.aviationweather.gov/metar/data/
 
Forecast for: CYGK (KINGSTON ARPT (M, ON, CA)
Text: TAF CYGK 201938Z 2020/2104 34012G22KT P6SM BKN025 OVC090
Forecast period: 2000 UTC 20 January 2019 to 0400 UTC 21 January 2019
Forecast type: FROM: standard forecast or significant change
Winds: from the NNW (340 degrees) at 14 MPH (12 knots; 6.2 m/s)
gusting to 25 MPH (22 knots; 11.3 m/s)
Visibility: 6 or more miles 10+ km)
Ceiling: 2500 feet AGL
Clouds: broken clouds at 2500 feet AGL
overcast cloud deck at 9000 feet AGL
Weather: no significant weather forecast for this period
Text: TEMPO 2020/2022 5SM -SN BKN020 RMK NXT FCST BY 210200Z
Forecast period: 2000 to 2200 UTC 20 January 2019
Forecast type: TEMPORARY: The following changes expected for less than half the time period
Visibility: 5 miles (8 km)
Ceiling: 2000 feet AGL
Clouds: broken clouds at 2000 feet AGL
Weather: -SN  (light snow)